sensor_id;sensor_type;location;lat;lon;timestamp;temperature;humidity
15707;DHT22;7953;54.302;10.128;2023-04-15T00:02:14;7.70;99.90
15707;DHT22;7953;54.302;10.128;2023-04-15T00:04:44;7.70;99.90
15707;DHT22;7953;54.302;10.128;2023-04-15T00:07:11;7.70;99.90
15707;DHT22;7953;54.302;10.128;2023-04-15T00:09:38;7.70;99.90
15707;DHT22;7953;54.302;10.128;2023-04-15T00:12:05;7.70;99.90
15707;DHT22;7953;54.302;10.128;2023-04-15T00:14:33;7.70;99.90
15707;DHT22;7953;54.302;10.128;2023-04-15T00:17:00;7.60;99.90
15707;DHT22;7953;54.302;10.128;2023-04-15T00:19:27;7.70;99.90
15707;DHT22;7953;54.302;10.128;2023-04-15T00:21:55;7.70;99.90
15707;DHT22;7953;54.302;10.128;2023-04-15T00:24:22;7.70;99.90
15707;DHT22;7953;54.302;10.128;2023-04-15T00:26:49;7.60;99.90
15707;DHT22;7953;54.302;10.128;2023-04-15T00:29:16;7.70;99.90
15707;DHT22;7953;54.302;10.128;2023-04-15T00:31:43;7.70;99.90
15707;DHT22;7953;54.302;10.128;2023-04-15T00:34:10;7.70;99.90
15707;DHT22;7953;54.302;10.128;2023-04-15T00:36:37;7.70;99.90
15707;DHT22;7953;54.302;10.128;2023-04-15T00:39:05;7.70;99.90
15707;DHT22;7953;54.302;10.128;2023-04-15T00:41:32;7.70;99.90
15707;DHT22;7953;54.302;10.128;2023-04-15T00:44:00;7.70;99.90
15707;DHT22;7953;54.302;10.128;2023-04-15T00:46:28;7.70;99.90
15707;DHT22;7953;54.302;10.128;2023-04-15T00:48:56;7.70;99.90
15707;DHT22;7953;54.302;10.128;2023-04-15T00:51:23;7.80;99.90
15707;DHT22;7953;54.302;10.128;2023-04-15T00:53:50;7.80;99.90
15707;DHT22;7953;54.302;10.128;2023-04-15T00:56:19;7.70;99.90
15707;DHT22;7953;54.302;10.128;2023-04-15T00:58:49;7.70;99.90
15707;DHT22;7953;54.302;10.128;2023-04-15T01:01:18;7.70;99.90
15707;DHT22;7953;54.302;10.128;2023-04-15T01:03:46;7.80;99.90
15707;DHT22;7953;54.302;10.128;2023-04-15T01:06:14;7.80;99.90
15707;DHT22;7953;54.302;10.128;2023-04-15T01:08:42;7.70;99.90
15707;DHT22;7953;54.302;10.128;2023-04-15T01:11:09;7.70;99.90
15707;DHT22;7953;54.302;10.128;2023-04-15T01:13:39;7.70;99.90
15707;DHT22;7953;54.302;10.128;2023-04-15T01:16:07;7.80;99.90
15707;DHT22;7953;54.302;10.128;2023-04-15T01:18:34;7.80;99.90
15707;DHT22;7953;54.302;10.128;2023-04-15T01:21:02;7.80;99.90
15707;DHT22;7953;54.302;10.128;2023-04-15T01:23:31;7.80;99.90
15707;DHT22;7953;54.302;10.128;2023-04-15T01:25:59;7.80;99.90
15707;DHT22;7953;54.302;10.128;2023-04-15T01:28:27;7.80;99.90
15707;DHT22;7953;54.302;10.128;2023-04-15T01:31:05;7.80;99.90
15707;DHT22;7953;54.302;10.128;2023-04-15T01:33:33;7.80;99.90
15707;DHT22;7953;54.302;10.128;2023-04-15T01:36:00;7.80;99.90
15707;DHT22;7953;54.302;10.128;2023-04-15T01:38:27;7.70;99.90
15707;DHT22;7953;54.302;10.128;2023-04-15T01:40:55;7.80;99.90
15707;DHT22;7953;54.302;10.128;2023-04-15T01:43:23;7.80;99.90
15707;DHT22;7953;54.302;10.128;2023-04-15T01:45:50;7.80;99.90
15707;DHT22;7953;54.302;10.128;2023-04-15T01:48:17;7.80;99.90
15707;DHT22;7953;54.302;10.128;2023-04-15T01:50:44;7.90;99.90
15707;DHT22;7953;54.302;10.128;2023-04-15T01:53:11;7.80;99.90
15707;DHT22;7953;54.302;10.128;2023-04-15T01:55:38;7.80;99.90
15707;DHT22;7953;54.302;10.128;2023-04-15T01:58:05;7.80;99.90
15707;DHT22;7953;54.302;10.128;2023-04-15T02:00:33;7.80;99.90
15707;DHT22;7953;54.302;10.128;2023-04-15T02:03:00;7.90;99.90
15707;DHT22;7953;54.302;10.128;2023-04-15T02:05:27;7.90;99.90
15707;DHT22;7953;54.302;10.128;2023-04-15T02:07:54;7.90;99.90
15707;DHT22;7953;54.302;10.128;2023-04-15T02:10:22;7.90;99.90
15707;DHT22;7953;54.302;10.128;2023-04-15T02:12:48;7.90;99.90
15707;DHT22;7953;54.302;10.128;2023-04-15T02:15:15;7.90;99.90
15707;DHT22;7953;54.302;10.128;2023-04-15T02:17:44;7.80;99.90
15707;DHT22;7953;54.302;10.128;2023-04-15T02:20:15;7.90;99.90
15707;DHT22;7953;54.302;10.128;2023-04-15T02:22:42;7.90;99.90
15707;DHT22;7953;54.302;10.128;2023-04-15T02:25:09;7.80;99.90
15707;DHT22;7953;54.302;10.128;2023-04-15T02:27:36;7.90;99.90
15707;DHT22;7953;54.302;10.128;2023-04-15T02:30:04;7.90;99.90
15707;DHT22;7953;54.302;10.128;2023-04-15T02:32:31;7.80;99.90
15707;DHT22;7953;54.302;10.128;2023-04-15T02:35:03;7.80;99.90
15707;DHT22;7953;54.302;10.128;2023-04-15T02:37:30;7.90;99.90
15707;DHT22;7953;54.302;10.128;2023-04-15T02:40:01;7.90;99.90
15707;DHT22;7953;54.302;10.128;2023-04-15T02:42:29;7.90;99.90
15707;DHT22;7953;54.302;10.128;2023-04-15T02:44:56;7.90;99.90
15707;DHT22;7953;54.302;10.128;2023-04-15T02:47:23;7.90;99.90
15707;DHT22;7953;54.302;10.128;2023-04-15T02:49:51;7.90;99.90
15707;DHT22;7953;54.302;10.128;2023-04-15T02:52:19;7.90;99.90
15707;DHT22;7953;54.302;10.128;2023-04-15T02:54:46;7.90;99.90
15707;DHT22;7953;54.302;10.128;2023-04-15T02:57:13;7.90;99.90
15707;DHT22;7953;54.302;10.128;2023-04-15T02:59:40;7.90;99.90
15707;DHT22;7953;54.302;10.128;2023-04-15T03:02:06;7.90;99.90
15707;DHT22;7953;54.302;10.128;2023-04-15T03:04:33;7.90;99.90
15707;DHT22;7953;54.302;10.128;2023-04-15T03:07:01;7.90;99.90
15707;DHT22;7953;54.302;10.128;2023-04-15T03:09:29;7.90;99.90
15707;DHT22;7953;54.302;10.128;2023-04-15T03:11:56;7.90;99.90
15707;DHT22;7953;54.302;10.128;2023-04-15T03:14:23;7.90;99.90
15707;DHT22;7953;54.302;10.128;2023-04-15T03:16:50;7.90;99.90
15707;DHT22;7953;54.302;10.128;2023-04-15T03:19:17;7.90;99.90
15707;DHT22;7953;54.302;10.128;2023-04-15T03:21:44;7.90;99.90
15707;DHT22;7953;54.302;10.128;2023-04-15T03:24:11;7.90;99.90
15707;DHT22;7953;54.302;10.128;2023-04-15T03:26:39;7.90;99.90
15707;DHT22;7953;54.302;10.128;2023-04-15T03:29:06;7.90;99.90
15707;DHT22;7953;54.302;10.128;2023-04-15T03:31:33;7.90;99.90
15707;DHT22;7953;54.302;10.128;2023-04-15T03:34:00;7.90;99.90
15707;DHT22;7953;54.302;10.128;2023-04-15T03:36:28;7.90;99.90
15707;DHT22;7953;54.302;10.128;2023-04-15T03:38:55;8.00;99.90
15707;DHT22;7953;54.302;10.128;2023-04-15T03:41:23;7.90;99.90
15707;DHT22;7953;54.302;10.128;2023-04-15T03:43:51;7.90;99.90
15707;DHT22;7953;54.302;10.128;2023-04-15T03:46:18;7.90;99.90
15707;DHT22;7953;54.302;10.128;2023-04-15T03:48:46;7.90;99.90
15707;DHT22;7953;54.302;10.128;2023-04-15T03:51:13;7.90;99.90
15707;DHT22;7953;54.302;10.128;2023-04-15T03:53:40;8.00;99.90
15707;DHT22;7953;54.302;10.128;2023-04-15T03:56:07;7.90;99.90
15707;DHT22;7953;54.302;10.128;2023-04-15T03:58:33;8.00;99.90
15707;DHT22;7953;54.302;10.128;2023-04-15T04:01:02;8.00;99.90
15707;DHT22;7953;54.302;10.128;2023-04-15T04:03:29;8.00;99.90
15707;DHT22;7953;54.302;10.128;2023-04-15T04:05:56;8.00;99.90
15707;DHT22;7953;54.302;10.128;2023-04-15T04:08:23;8.00;99.90
15707;DHT22;7953;54.302;10.128;2023-04-15T04:10:50;8.00;99.90
15707;DHT22;7953;54.302;10.128;2023-04-15T04:13:16;8.00;99.90
15707;DHT22;7953;54.302;10.128;2023-04-15T04:15:43;8.00;99.90
15707;DHT22;7953;54.302;10.128;2023-04-15T04:18:12;8.00;99.90
15707;DHT22;7953;54.302;10.128;2023-04-15T04:20:39;8.00;99.90
15707;DHT22;7953;54.302;10.128;2023-04-15T04:23:05;8.00;99.90
15707;DHT22;7953;54.302;10.128;2023-04-15T04:25:32;8.00;99.90
15707;DHT22;7953;54.302;10.128;2023-04-15T04:27:59;8.00;99.90
15707;DHT22;7953;54.302;10.128;2023-04-15T04:30:26;8.00;99.90
15707;DHT22;7953;54.302;10.128;2023-04-15T04:32:53;8.10;99.90
15707;DHT22;7953;54.302;10.128;2023-04-15T04:35:21;8.10;99.90
15707;DHT22;7953;54.302;10.128;2023-04-15T04:37:48;8.10;99.90
15707;DHT22;7953;54.302;10.128;2023-04-15T04:40:15;8.10;99.90
15707;DHT22;7953;54.302;10.128;2023-04-15T04:42:42;8.10;99.90
15707;DHT22;7953;54.302;10.128;2023-04-15T04:45:09;8.10;99.90
15707;DHT22;7953;54.302;10.128;2023-04-15T04:47:36;8.20;99.90
15707;DHT22;7953;54.302;10.128;2023-04-15T04:50:04;8.20;99.90
15707;DHT22;7953;54.302;10.128;2023-04-15T04:52:32;8.20;99.90
15707;DHT22;7953;54.302;10.128;2023-04-15T04:54:59;8.20;99.90
15707;DHT22;7953;54.302;10.128;2023-04-15T04:57:26;8.20;99.90
15707;DHT22;7953;54.302;10.128;2023-04-15T04:59:53;8.20;99.90
15707;DHT22;7953;54.302;10.128;2023-04-15T05:02:20;8.20;99.90
15707;DHT22;7953;54.302;10.128;2023-04-15T05:04:46;8.20;99.90
15707;DHT22;7953;54.302;10.128;2023-04-15T05:07:14;8.20;99.90
15707;DHT22;7953;54.302;10.128;2023-04-15T05:09:42;8.20;99.90
15707;DHT22;7953;54.302;10.128;2023-04-15T05:12:09;8.20;99.90
15707;DHT22;7953;54.302;10.128;2023-04-15T05:14:39;8.20;99.90
15707;DHT22;7953;54.302;10.128;2023-04-15T05:17:06;8.20;99.90
15707;DHT22;7953;54.302;10.128;2023-04-15T05:19:33;8.20;99.90
15707;DHT22;7953;54.302;10.128;2023-04-15T05:22:00;8.30;99.90
15707;DHT22;7953;54.302;10.128;2023-04-15T05:24:27;8.20;99.90
15707;DHT22;7953;54.302;10.128;2023-04-15T05:26:56;8.20;99.90
15707;DHT22;7953;54.302;10.128;2023-04-15T05:29:23;8.30;99.90
15707;DHT22;7953;54.302;10.128;2023-04-15T05:31:49;8.30;99.90
15707;DHT22;7953;54.302;10.128;2023-04-15T05:34:16;8.40;99.90
15707;DHT22;7953;54.302;10.128;2023-04-15T05:36:43;8.30;99.90
15707;DHT22;7953;54.302;10.128;2023-04-15T05:39:10;8.40;99.90
15707;DHT22;7953;54.302;10.128;2023-04-15T05:41:37;8.40;99.90
15707;DHT22;7953;54.302;10.128;2023-04-15T05:44:05;8.40;99.90
15707;DHT22;7953;54.302;10.128;2023-04-15T05:46:32;8.30;99.90
15707;DHT22;7953;54.302;10.128;2023-04-15T05:48:59;8.40;99.90
15707;DHT22;7953;54.302;10.128;2023-04-15T05:51:26;8.40;99.90
15707;DHT22;7953;54.302;10.128;2023-04-15T05:53:53;8.40;99.90
15707;DHT22;7953;54.302;10.128;2023-04-15T05:56:20;8.30;99.90
15707;DHT22;7953;54.302;10.128;2023-04-15T05:58:46;8.30;99.90
15707;DHT22;7953;54.302;10.128;2023-04-15T06:01:15;8.40;99.90
15707;DHT22;7953;54.302;10.128;2023-04-15T06:03:42;8.30;99.90
15707;DHT22;7953;54.302;10.128;2023-04-15T06:06:09;8.40;99.90
15707;DHT22;7953;54.302;10.128;2023-04-15T06:08:36;8.40;99.90
15707;DHT22;7953;54.302;10.128;2023-04-15T06:11:03;8.30;99.90
15707;DHT22;7953;54.302;10.128;2023-04-15T06:13:30;8.40;99.90
15707;DHT22;7953;54.302;10.128;2023-04-15T06:15:57;8.40;99.90
15707;DHT22;7953;54.302;10.128;2023-04-15T06:18:25;8.50;99.90
15707;DHT22;7953;54.302;10.128;2023-04-15T06:20:52;8.40;99.90
15707;DHT22;7953;54.302;10.128;2023-04-15T06:23:19;8.50;99.90
15707;DHT22;7953;54.302;10.128;2023-04-15T06:25:46;8.50;99.90
15707;DHT22;7953;54.302;10.128;2023-04-15T06:28:13;8.60;99.90
15707;DHT22;7953;54.302;10.128;2023-04-15T06:30:40;8.60;99.90
15707;DHT22;7953;54.302;10.128;2023-04-15T06:33:07;8.60;99.90
15707;DHT22;7953;54.302;10.128;2023-04-15T06:35:36;8.50;99.90
15707;DHT22;7953;54.302;10.128;2023-04-15T06:38:03;8.60;99.90
15707;DHT22;7953;54.302;10.128;2023-04-15T06:40:30;8.50;99.90
15707;DHT22;7953;54.302;10.128;2023-04-15T06:42:57;8.60;99.90
15707;DHT22;7953;54.302;10.128;2023-04-15T06:45:24;8.60;99.90
15707;DHT22;7953;54.302;10.128;2023-04-15T06:47:51;8.50;99.90
15707;DHT22;7953;54.302;10.128;2023-04-15T06:50:18;8.50;99.90
15707;DHT22;7953;54.302;10.128;2023-04-15T06:52:47;8.50;99.90
15707;DHT22;7953;54.302;10.128;2023-04-15T06:55:13;8.60;99.90
15707;DHT22;7953;54.302;10.128;2023-04-15T06:57:40;8.60;99.90
15707;DHT22;7953;54.302;10.128;2023-04-15T07:00:08;8.60;99.90
15707;DHT22;7953;54.302;10.128;2023-04-15T07:02:36;8.60;99.90
15707;DHT22;7953;54.302;10.128;2023-04-15T07:05:05;8.50;99.90
15707;DHT22;7953;54.302;10.128;2023-04-15T07:07:32;8.60;99.90
15707;DHT22;7953;54.302;10.128;2023-04-15T07:10:01;8.60;99.90
15707;DHT22;7953;54.302;10.128;2023-04-15T07:12:29;8.60;99.90
15707;DHT22;7953;54.302;10.128;2023-04-15T07:14:55;8.60;99.90
15707;DHT22;7953;54.302;10.128;2023-04-15T07:17:22;8.60;99.90
15707;DHT22;7953;54.302;10.128;2023-04-15T07:19:49;8.60;99.90
15707;DHT22;7953;54.302;10.128;2023-04-15T07:22:16;8.70;99.90
15707;DHT22;7953;54.302;10.128;2023-04-15T07:24:43;8.70;99.90
15707;DHT22;7953;54.302;10.128;2023-04-15T07:27:11;8.70;99.90
15707;DHT22;7953;54.302;10.128;2023-04-15T07:29:38;8.70;99.90
15707;DHT22;7953;54.302;10.128;2023-04-15T07:32:05;8.70;99.90
15707;DHT22;7953;54.302;10.128;2023-04-15T07:34:32;8.70;99.90
15707;DHT22;7953;54.302;10.128;2023-04-15T07:36:59;8.70;99.90
15707;DHT22;7953;54.302;10.128;2023-04-15T07:39:26;8.80;99.90
15707;DHT22;7953;54.302;10.128;2023-04-15T07:41:53;8.70;99.90
15707;DHT22;7953;54.302;10.128;2023-04-15T07:44:22;8.80;99.90
15707;DHT22;7953;54.302;10.128;2023-04-15T07:46:49;8.80;99.90
15707;DHT22;7953;54.302;10.128;2023-04-15T07:49:15;8.90;99.90
15707;DHT22;7953;54.302;10.128;2023-04-15T07:51:43;8.90;99.90
15707;DHT22;7953;54.302;10.128;2023-04-15T07:54:10;8.90;99.90
15707;DHT22;7953;54.302;10.128;2023-04-15T07:56:37;9.00;99.90
15707;DHT22;7953;54.302;10.128;2023-04-15T07:59:04;9.00;99.90
15707;DHT22;7953;54.302;10.128;2023-04-15T08:01:33;9.10;99.90
15707;DHT22;7953;54.302;10.128;2023-04-15T08:04:00;9.10;99.90
15707;DHT22;7953;54.302;10.128;2023-04-15T08:06:27;9.20;99.90
15707;DHT22;7953;54.302;10.128;2023-04-15T08:08:54;9.20;99.90
15707;DHT22;7953;54.302;10.128;2023-04-15T08:11:21;9.30;99.90
15707;DHT22;7953;54.302;10.128;2023-04-15T08:13:49;9.30;99.90
15707;DHT22;7953;54.302;10.128;2023-04-15T08:16:18;9.40;99.90
15707;DHT22;7953;54.302;10.128;2023-04-15T08:18:47;9.40;99.90
15707;DHT22;7953;54.302;10.128;2023-04-15T08:21:14;9.40;99.90
15707;DHT22;7953;54.302;10.128;2023-04-15T08:23:42;9.40;99.90
15707;DHT22;7953;54.302;10.128;2023-04-15T08:26:09;9.40;99.90
15707;DHT22;7953;54.302;10.128;2023-04-15T08:28:38;9.40;99.90
15707;DHT22;7953;54.302;10.128;2023-04-15T08:31:05;9.50;99.90
15707;DHT22;7953;54.302;10.128;2023-04-15T08:33:32;9.50;99.90
15707;DHT22;7953;54.302;10.128;2023-04-15T08:36:00;9.50;99.90
15707;DHT22;7953;54.302;10.128;2023-04-15T08:38:27;9.50;99.90
15707;DHT22;7953;54.302;10.128;2023-04-15T08:40:55;9.40;99.90
15707;DHT22;7953;54.302;10.128;2023-04-15T08:43:27;9.50;99.90
15707;DHT22;7953;54.302;10.128;2023-04-15T08:45:55;9.50;99.90
15707;DHT22;7953;54.302;10.128;2023-04-15T08:48:28;9.60;99.90
15707;DHT22;7953;54.302;10.128;2023-04-15T08:50:56;9.60;99.90
15707;DHT22;7953;54.302;10.128;2023-04-15T08:53:27;9.60;99.90
15707;DHT22;7953;54.302;10.128;2023-04-15T08:55:56;9.70;99.90
15707;DHT22;7953;54.302;10.128;2023-04-15T08:58:24;9.60;99.90
15707;DHT22;7953;54.302;10.128;2023-04-15T09:00:51;9.60;99.90
15707;DHT22;7953;54.302;10.128;2023-04-15T09:03:19;9.60;99.90
15707;DHT22;7953;54.302;10.128;2023-04-15T09:05:47;9.60;99.90
15707;DHT22;7953;54.302;10.128;2023-04-15T09:08:14;9.70;99.90
15707;DHT22;7953;54.302;10.128;2023-04-15T09:10:42;9.70;99.90
15707;DHT22;7953;54.302;10.128;2023-04-15T09:13:09;9.80;99.90
15707;DHT22;7953;54.302;10.128;2023-04-15T09:15:37;9.90;99.90
15707;DHT22;7953;54.302;10.128;2023-04-15T09:18:04;10.00;99.90
15707;DHT22;7953;54.302;10.128;2023-04-15T09:20:38;10.00;99.90
15707;DHT22;7953;54.302;10.128;2023-04-15T09:23:11;10.20;99.90
15707;DHT22;7953;54.302;10.128;2023-04-15T09:25:39;10.30;99.90
15707;DHT22;7953;54.302;10.128;2023-04-15T09:28:09;10.40;99.90
15707;DHT22;7953;54.302;10.128;2023-04-15T09:30:36;10.60;99.90
15707;DHT22;7953;54.302;10.128;2023-04-15T09:33:04;10.70;99.90
15707;DHT22;7953;54.302;10.128;2023-04-15T09:35:33;10.80;99.90
15707;DHT22;7953;54.302;10.128;2023-04-15T09:38:04;11.00;99.90
15707;DHT22;7953;54.302;10.128;2023-04-15T09:40:33;11.10;99.90
15707;DHT22;7953;54.302;10.128;2023-04-15T09:43:00;11.30;99.90
15707;DHT22;7953;54.302;10.128;2023-04-15T09:45:29;11.40;99.90
15707;DHT22;7953;54.302;10.128;2023-04-15T09:47:56;11.60;99.90
15707;DHT22;7953;54.302;10.128;2023-04-15T09:50:26;11.70;99.90
15707;DHT22;7953;54.302;10.128;2023-04-15T09:52:54;11.90;99.90
15707;DHT22;7953;54.302;10.128;2023-04-15T09:55:21;12.10;99.90
15707;DHT22;7953;54.302;10.128;2023-04-15T09:57:48;12.10;99.90
15707;DHT22;7953;54.302;10.128;2023-04-15T10:00:15;12.10;99.90
15707;DHT22;7953;54.302;10.128;2023-04-15T10:02:46;12.20;99.90
15707;DHT22;7953;54.302;10.128;2023-04-15T10:05:14;12.20;99.90
15707;DHT22;7953;54.302;10.128;2023-04-15T10:07:42;12.20;99.90
15707;DHT22;7953;54.302;10.128;2023-04-15T10:10:10;12.40;99.90
15707;DHT22;7953;54.302;10.128;2023-04-15T10:12:39;12.60;99.90
15707;DHT22;7953;54.302;10.128;2023-04-15T10:15:13;12.80;99.90
15707;DHT22;7953;54.302;10.128;2023-04-15T10:17:44;13.10;99.90
15707;DHT22;7953;54.302;10.128;2023-04-15T10:20:11;13.30;99.90
15707;DHT22;7953;54.302;10.128;2023-04-15T10:22:39;13.30;99.90
15707;DHT22;7953;54.302;10.128;2023-04-15T10:25:09;13.30;99.90
15707;DHT22;7953;54.302;10.128;2023-04-15T10:27:36;13.20;99.90
15707;DHT22;7953;54.302;10.128;2023-04-15T10:30:06;13.20;99.90
15707;DHT22;7953;54.302;10.128;2023-04-15T10:32:33;13.30;99.90
15707;DHT22;7953;54.302;10.128;2023-04-15T10:35:03;13.40;99.90
15707;DHT22;7953;54.302;10.128;2023-04-15T10:37:36;13.60;99.90
15707;DHT22;7953;54.302;10.128;2023-04-15T10:40:27;13.60;99.90
15707;DHT22;7953;54.302;10.128;2023-04-15T10:42:57;13.60;99.90
15707;DHT22;7953;54.302;10.128;2023-04-15T10:45:30;13.60;99.90
15707;DHT22;7953;54.302;10.128;2023-04-15T10:48:00;13.60;99.90
15707;DHT22;7953;54.302;10.128;2023-04-15T10:50:30;13.50;99.90
15707;DHT22;7953;54.302;10.128;2023-04-15T10:52:58;13.50;99.90
15707;DHT22;7953;54.302;10.128;2023-04-15T10:55:26;13.50;99.90
15707;DHT22;7953;54.302;10.128;2023-04-15T10:57:54;13.50;99.90
15707;DHT22;7953;54.302;10.128;2023-04-15T11:00:24;13.50;99.90
15707;DHT22;7953;54.302;10.128;2023-04-15T11:02:54;13.70;99.90
15707;DHT22;7953;54.302;10.128;2023-04-15T11:05:22;13.80;99.90
15707;DHT22;7953;54.302;10.128;2023-04-15T11:08:11;14.00;99.90
15707;DHT22;7953;54.302;10.128;2023-04-15T11:10:55;14.40;99.90
15707;DHT22;7953;54.302;10.128;2023-04-15T11:13:26;14.50;99.90
15707;DHT22;7953;54.302;10.128;2023-04-15T11:15:58;14.60;99.90
15707;DHT22;7953;54.302;10.128;2023-04-15T11:18:27;14.50;99.90
15707;DHT22;7953;54.302;10.128;2023-04-15T11:20:56;14.40;99.90
15707;DHT22;7953;54.302;10.128;2023-04-15T11:23:30;14.40;99.90
15707;DHT22;7953;54.302;10.128;2023-04-15T11:25:58;14.40;99.90
15707;DHT22;7953;54.302;10.128;2023-04-15T11:28:26;14.40;99.90
15707;DHT22;7953;54.302;10.128;2023-04-15T11:30:53;14.50;99.90
15707;DHT22;7953;54.302;10.128;2023-04-15T11:33:22;14.80;99.90
15707;DHT22;7953;54.302;10.128;2023-04-15T11:35:49;14.90;99.90
15707;DHT22;7953;54.302;10.128;2023-04-15T11:38:18;15.10;99.90
15707;DHT22;7953;54.302;10.128;2023-04-15T11:40:46;15.30;99.90
15707;DHT22;7953;54.302;10.128;2023-04-15T11:43:14;15.40;99.90
15707;DHT22;7953;54.302;10.128;2023-04-15T11:45:49;15.60;99.90
15707;DHT22;7953;54.302;10.128;2023-04-15T11:48:18;15.50;99.90
15707;DHT22;7953;54.302;10.128;2023-04-15T11:50:45;15.50;99.90
15707;DHT22;7953;54.302;10.128;2023-04-15T11:53:13;15.60;99.90
15707;DHT22;7953;54.302;10.128;2023-04-15T11:55:44;15.80;99.90
15707;DHT22;7953;54.302;10.128;2023-04-15T11:58:14;16.00;99.90
15707;DHT22;7953;54.302;10.128;2023-04-15T12:00:46;16.20;99.90
15707;DHT22;7953;54.302;10.128;2023-04-15T12:03:16;16.40;99.90
15707;DHT22;7953;54.302;10.128;2023-04-15T12:06:07;16.50;99.90
15707;DHT22;7953;54.302;10.128;2023-04-15T12:08:59;16.80;99.90
15707;DHT22;7953;54.302;10.128;2023-04-15T12:11:34;17.10;99.90
15707;DHT22;7953;54.302;10.128;2023-04-15T12:14:08;17.20;99.90
15707;DHT22;7953;54.302;10.128;2023-04-15T12:16:36;17.20;99.90
15707;DHT22;7953;54.302;10.128;2023-04-15T12:19:05;17.30;99.90
15707;DHT22;7953;54.302;10.128;2023-04-15T12:21:36;17.20;99.90
15707;DHT22;7953;54.302;10.128;2023-04-15T12:24:04;17.00;99.90
15707;DHT22;7953;54.302;10.128;2023-04-15T12:26:34;16.70;99.90
15707;DHT22;7953;54.302;10.128;2023-04-15T12:29:04;16.50;99.90
15707;DHT22;7953;54.302;10.128;2023-04-15T12:31:33;16.20;99.90
15707;DHT22;7953;54.302;10.128;2023-04-15T12:34:01;15.90;99.90
15707;DHT22;7953;54.302;10.128;2023-04-15T12:36:29;15.90;99.90
15707;DHT22;7953;54.302;10.128;2023-04-15T12:39:01;15.80;99.90
15707;DHT22;7953;54.302;10.128;2023-04-15T12:41:28;15.80;99.90
15707;DHT22;7953;54.302;10.128;2023-04-15T12:43:55;15.80;99.90
15707;DHT22;7953;54.302;10.128;2023-04-15T12:46:22;15.80;99.90
15707;DHT22;7953;54.302;10.128;2023-04-15T12:48:50;16.00;99.90
15707;DHT22;7953;54.302;10.128;2023-04-15T12:51:18;16.20;99.90
15707;DHT22;7953;54.302;10.128;2023-04-15T12:53:45;16.30;99.90
15707;DHT22;7953;54.302;10.128;2023-04-15T12:56:14;16.30;99.90
15707;DHT22;7953;54.302;10.128;2023-04-15T12:58:41;16.50;99.90
15707;DHT22;7953;54.302;10.128;2023-04-15T13:01:08;16.50;99.90
15707;DHT22;7953;54.302;10.128;2023-04-15T13:03:35;16.70;99.90
15707;DHT22;7953;54.302;10.128;2023-04-15T13:06:04;16.80;99.90
15707;DHT22;7953;54.302;10.128;2023-04-15T13:08:31;16.70;99.90
15707;DHT22;7953;54.302;10.128;2023-04-15T13:10:58;16.70;99.90
15707;DHT22;7953;54.302;10.128;2023-04-15T13:13:25;16.50;99.90
15707;DHT22;7953;54.302;10.128;2023-04-15T13:15:52;16.40;99.90
15707;DHT22;7953;54.302;10.128;2023-04-15T13:18:20;16.30;99.90
15707;DHT22;7953;54.302;10.128;2023-04-15T13:20:48;16.30;99.90
15707;DHT22;7953;54.302;10.128;2023-04-15T13:23:16;16.30;99.90
15707;DHT22;7953;54.302;10.128;2023-04-15T13:25:43;16.40;99.90
15707;DHT22;7953;54.302;10.128;2023-04-15T13:28:10;16.40;99.90
15707;DHT22;7953;54.302;10.128;2023-04-15T13:30:38;16.60;99.90
15707;DHT22;7953;54.302;10.128;2023-04-15T13:33:05;16.60;99.90
15707;DHT22;7953;54.302;10.128;2023-04-15T13:35:32;16.60;99.90
15707;DHT22;7953;54.302;10.128;2023-04-15T13:37:59;16.40;99.90
15707;DHT22;7953;54.302;10.128;2023-04-15T13:40:27;16.40;99.90
15707;DHT22;7953;54.302;10.128;2023-04-15T13:42:54;16.50;99.90
15707;DHT22;7953;54.302;10.128;2023-04-15T13:45:22;16.50;99.90
15707;DHT22;7953;54.302;10.128;2023-04-15T13:47:49;16.40;99.90
15707;DHT22;7953;54.302;10.128;2023-04-15T13:50:16;16.30;99.90
15707;DHT22;7953;54.302;10.128;2023-04-15T13:52:43;16.30;99.90
15707;DHT22;7953;54.302;10.128;2023-04-15T13:55:09;16.30;99.90
15707;DHT22;7953;54.302;10.128;2023-04-15T13:57:38;16.40;99.90
15707;DHT22;7953;54.302;10.128;2023-04-15T14:00:06;16.50;99.90
15707;DHT22;7953;54.302;10.128;2023-04-15T14:02:33;16.60;99.90
15707;DHT22;7953;54.302;10.128;2023-04-15T14:05:00;16.70;99.90
15707;DHT22;7953;54.302;10.128;2023-04-15T14:07:28;16.60;99.90
15707;DHT22;7953;54.302;10.128;2023-04-15T14:09:55;16.60;99.90
15707;DHT22;7953;54.302;10.128;2023-04-15T14:12:22;16.40;99.90
15707;DHT22;7953;54.302;10.128;2023-04-15T14:14:50;16.10;99.90
15707;DHT22;7953;54.302;10.128;2023-04-15T14:17:17;15.80;99.90
15707;DHT22;7953;54.302;10.128;2023-04-15T14:19:44;15.60;99.90
15707;DHT22;7953;54.302;10.128;2023-04-15T14:22:11;15.40;99.90
15707;DHT22;7953;54.302;10.128;2023-04-15T14:24:37;15.30;99.90
15707;DHT22;7953;54.302;10.128;2023-04-15T14:27:05;15.10;99.90
15707;DHT22;7953;54.302;10.128;2023-04-15T14:29:33;14.90;99.90
15707;DHT22;7953;54.302;10.128;2023-04-15T14:32:01;14.90;99.90
15707;DHT22;7953;54.302;10.128;2023-04-15T14:34:28;14.80;99.90
15707;DHT22;7953;54.302;10.128;2023-04-15T14:36:55;14.80;99.90
15707;DHT22;7953;54.302;10.128;2023-04-15T14:39:22;14.80;99.90
15707;DHT22;7953;54.302;10.128;2023-04-15T14:41:49;14.80;99.90
15707;DHT22;7953;54.302;10.128;2023-04-15T14:44:16;14.70;99.90
15707;DHT22;7953;54.302;10.128;2023-04-15T14:46:43;14.70;99.90
15707;DHT22;7953;54.302;10.128;2023-04-15T14:49:11;14.70;99.90
15707;DHT22;7953;54.302;10.128;2023-04-15T14:51:38;14.60;99.90
15707;DHT22;7953;54.302;10.128;2023-04-15T14:54:05;14.50;99.90
15707;DHT22;7953;54.302;10.128;2023-04-15T14:56:32;14.50;99.90
15707;DHT22;7953;54.302;10.128;2023-04-15T14:58:58;14.50;99.90
15707;DHT22;7953;54.302;10.128;2023-04-15T15:01:25;14.50;99.90
15707;DHT22;7953;54.302;10.128;2023-04-15T15:03:52;14.40;99.90
15707;DHT22;7953;54.302;10.128;2023-04-15T15:06:22;14.40;99.90
15707;DHT22;7953;54.302;10.128;2023-04-15T15:08:49;14.40;99.90
15707;DHT22;7953;54.302;10.128;2023-04-15T15:11:15;14.30;99.90
15707;DHT22;7953;54.302;10.128;2023-04-15T15:13:42;14.20;99.90
15707;DHT22;7953;54.302;10.128;2023-04-15T15:16:09;14.20;99.90
15707;DHT22;7953;54.302;10.128;2023-04-15T15:18:36;14.20;99.90
15707;DHT22;7953;54.302;10.128;2023-04-15T15:21:03;14.20;99.90
15707;DHT22;7953;54.302;10.128;2023-04-15T15:23:32;14.10;99.90
15707;DHT22;7953;54.302;10.128;2023-04-15T15:25:58;14.10;99.90
15707;DHT22;7953;54.302;10.128;2023-04-15T15:28:26;14.10;99.90
15707;DHT22;7953;54.302;10.128;2023-04-15T15:30:52;14.00;99.90
15707;DHT22;7953;54.302;10.128;2023-04-15T15:33:19;13.90;99.90
15707;DHT22;7953;54.302;10.128;2023-04-15T15:35:47;13.80;99.90
15707;DHT22;7953;54.302;10.128;2023-04-15T15:38:14;13.70;99.90
15707;DHT22;7953;54.302;10.128;2023-04-15T15:40:42;13.60;99.90
15707;DHT22;7953;54.302;10.128;2023-04-15T15:43:09;13.50;99.90
15707;DHT22;7953;54.302;10.128;2023-04-15T15:45:36;13.50;99.90